Terminal Aerodrome Forecast
Issued by NWS Mt. Holly, NJ

Home | Current Version | Previous Version | Text Only | Print | Product List | Glossary On
Versions: 1 2 3 4 5 6 7 8 9 10 11 12 13 14 15 16 17 18 19 20 21 22
000
FTUS41 KPHI 171100
TAFTTN
TAF
KTTN 171120Z 1712/1812 06009G17KT P6SM FEW035
     FM171600 10012KT P6SM SCT040
     FM180000 14008KT P6SM SCT040
     FM180600 08005KT 6SM BR BKN030=

USA.gov is the U.S. government's official web portal to all federal, state and local government web resources and services.